Piney Point, Texas
Current Conditions -  °F | °C
As of 9:15 PM on Friday 21 Nov 2014 (Local Time) from KMCJ Reporting Station
Scattered Clouds Scattered Clouds  
Wind Chill: 63°   Ceiling: Unl
Heat Index: 63°   Visibility: 9mi
Dew Point: 61°   Wind: 17mph
Humidity: 94%   Direction: 100°E
Pressure: 30.1"   Gusts: 23mph
Location:  29.7698°N, 95.5164°W
Report Text: KMCJ 220315Z AUTO 10015G20KT 9SM SCT045 17/16 A3010 RMK AO1
Loading
Personal Weather Stations






























Interactive Weather Map New forecast layout! Learn more

10-Day Weather Forecast

Advertisements
Track Severe Weather on mobile